Time,TemperatureF,DewpointF,PressureIn,WindDirection,WindDirectionDegrees,WindSpeedMPH,WindSpeedGustMPH,Humidity,HourlyPrecipIn,Conditions,Clouds,dailyrainin,SoftwareType,DateUTC
2013-08-16 00:01:00,60.4,43.7,29.41,WSW,248,0.0,0.0,54,0.00,,---,0.00,VWS V14.01,2013-08-16 05:01:00,
2013-08-16 00:06:00,60.6,43.9,29.41,WSW,248,0.0,0.0,54,0.00,,---,0.00,VWS V14.01,2013-08-16 05:06:00,
2013-08-16 00:11:00,60.8,44.1,29.41,WSW,248,0.0,0.0,54,0.00,,---,0.00,VWS V14.01,2013-08-16 05:11:00,
2013-08-16 00:16:00,60.8,44.1,29.41,WSW,248,0.0,0.0,54,0.00,,---,0.00,VWS V14.01,2013-08-16 05:16:00,
2013-08-16 00:21:00,60.8,44.1,29.41,WSW,248,0.0,0.0,54,0.00,,---,0.00,VWS V14.01,2013-08-16 05:21:00,
2013-08-16 00:26:00,61.0,44.2,29.41,WSW,248,0.0,0.0,54,0.00,,---,0.00,VWS V14.01,2013-08-16 05:26:00,
2013-08-16 00:31:00,61.0,44.2,29.41,WSW,248,0.0,0.0,54,0.00,,---,0.00,VWS V14.01,2013-08-16 05:31:00,
2013-08-16 00:36:00,61.0,43.8,29.41,WSW,248,0.0,0.0,53,0.00,,---,0.00,VWS V14.01,2013-08-16 05:36:00,
2013-08-16 00:41:00,60.8,43.1,29.41,WSW,248,0.0,0.0,52,0.00,,---,0.00,VWS V14.01,2013-08-16 05:41:00,
2013-08-16 00:46:00,60.6,42.9,29.41,WSW,248,0.0,0.0,52,0.00,,---,0.00,VWS V14.01,2013-08-16 05:46:00,
2013-08-16 00:51:00,60.4,42.8,29.41,WSW,248,0.0,0.0,52,0.00,,---,0.00,VWS V14.01,2013-08-16 05:51:00,
2013-08-16 00:56:00,60.3,42.6,29.41,WSW,248,0.0,0.0,52,0.00,,---,0.00,VWS V14.01,2013-08-16 05:56:00,
2013-08-16 01:01:00,60.1,42.4,29.41,WSW,248,0.0,0.0,52,0.00,,---,0.00,VWS V14.01,2013-08-16 06:01:00,
2013-08-16 01:06:00,60.1,42.9,29.41,WSW,248,0.0,0.0,53,0.00,,---,0.00,VWS V14.01,2013-08-16 06:06:00,
2013-08-16 01:11:00,59.9,43.2,29.41,WSW,248,0.0,0.0,54,0.00,,---,0.00,VWS V14.01,2013-08-16 06:11:00,
2013-08-16 01:16:00,59.7,44.0,29.41,WSW,248,0.0,0.0,56,0.00,,---,0.00,VWS V14.01,2013-08-16 06:16:00,
2013-08-16 01:21:00,59.5,44.3,29.41,WSW,248,0.0,0.0,57,0.00,,---,0.00,VWS V14.01,2013-08-16 06:21:00,
2013-08-16 01:26:00,59.5,44.8,29.41,WSW,248,0.0,0.0,58,0.00,,---,0.00,VWS V14.01,2013-08-16 06:26:00,
2013-08-16 01:30:00,59.4,44.6,29.41,WSW,248,0.0,0.0,58,0.00,,---,0.00,VWS V14.01,2013-08-16 06:30:00,
2013-08-16 01:35:00,59.4,44.1,29.41,WSW,248,0.0,0.0,57,0.00,,---,0.00,VWS V14.01,2013-08-16 06:35:00,
2013-08-16 01:36:00,59.4,44.1,29.41,WSW,248,0.0,0.0,57,0.00,,---,0.00,VWS V14.01,2013-08-16 06:36:00,
2013-08-16 01:41:00,59.4,45.5,29.41,WSW,248,0.0,0.0,60,0.00,,---,0.00,VWS V14.01,2013-08-16 06:41:00,
2013-08-16 01:46:00,59.2,44.9,29.41,WSW,248,0.0,0.0,59,0.00,,---,0.00,VWS V14.01,2013-08-16 06:46:00,
2013-08-16 01:50:00,59.4,45.5,29.41,NW,324,0.0,0.0,60,0.00,,---,0.00,VWS V14.01,2013-08-16 06:50:00,
2013-08-16 01:55:00,59.2,44.9,29.41,NW,324,0.0,0.0,59,0.00,,---,0.00,VWS V14.01,2013-08-16 06:55:00,
2013-08-16 02:00:00,59.2,44.4,29.41,NW,324,0.0,0.0,58,0.00,,---,0.00,VWS V14.01,2013-08-16 07:00:00,
2013-08-16 02:05:00,59.0,44.3,29.41,NW,324,0.0,0.0,58,0.00,,---,0.00,VWS V14.01,2013-08-16 07:05:00,
2013-08-16 02:10:00,58.8,43.6,29.41,NW,324,0.0,0.0,57,0.00,,---,0.00,VWS V14.01,2013-08-16 07:10:00,
2013-08-16 02:15:00,58.6,43.0,29.41,NW,324,0.0,0.0,56,0.00,,---,0.00,VWS V14.01,2013-08-16 07:15:00,
2013-08-16 02:20:00,58.5,41.9,29.41,NW,324,0.0,0.0,54,0.00,,---,0.00,VWS V14.01,2013-08-16 07:20:00,
2013-08-16 02:25:00,58.3,41.7,29.41,NW,324,0.0,0.0,54,0.00,,---,0.00,VWS V14.01,2013-08-16 07:25:00,
2013-08-16 02:30:00,58.1,41.6,29.41,NW,324,0.0,0.0,54,0.00,,---,0.00,VWS V14.01,2013-08-16 07:30:00,
2013-08-16 02:35:00,58.1,42.0,29.41,NW,324,0.0,0.0,55,0.00,,---,0.00,VWS V14.01,2013-08-16 07:35:00,
2013-08-16 02:40:00,58.1,42.5,29.41,NW,324,0.0,0.0,56,0.00,,---,0.00,VWS V14.01,2013-08-16 07:40:00,
2013-08-16 02:45:00,57.9,42.3,29.41,NW,324,0.0,0.0,56,0.00,,---,0.00,VWS V14.01,2013-08-16 07:45:00,
2013-08-16 02:50:00,57.9,42.8,29.41,NW,324,0.0,0.0,57,0.00,,---,0.00,VWS V14.01,2013-08-16 07:50:00,
2013-08-16 02:55:00,57.9,42.8,29.41,NW,324,0.0,0.0,57,0.00,,---,0.00,VWS V14.01,2013-08-16 07:55:00,
2013-08-16 03:00:00,57.7,42.2,29.41,NW,324,0.0,0.0,56,0.00,,---,0.00,VWS V14.01,2013-08-16 08:00:00,
2013-08-16 03:05:00,57.6,42.0,29.41,NW,324,0.0,0.0,56,0.00,,---,0.00,VWS V14.01,2013-08-16 08:05:00,
2013-08-16 03:10:00,57.6,42.9,29.41,NW,324,0.0,0.0,58,0.00,,---,0.00,VWS V14.01,2013-08-16 08:10:00,
2013-08-16 03:15:00,57.6,42.5,29.41,NW,324,0.0,0.0,57,0.00,,---,0.00,VWS V14.01,2013-08-16 08:15:00,
2013-08-16 03:20:00,57.6,42.5,29.41,NW,324,0.0,0.0,57,0.00,,---,0.00,VWS V14.01,2013-08-16 08:20:00,
2013-08-16 03:25:00,57.6,42.9,29.41,NW,324,0.0,0.0,58,0.00,,---,0.00,VWS V14.01,2013-08-16 08:25:00,
2013-08-16 03:30:00,57.4,42.7,29.41,NW,324,0.0,0.0,58,0.00,,---,0.00,VWS V14.01,2013-08-16 08:30:00,
2013-08-16 03:35:00,57.4,43.2,29.41,NW,324,0.0,0.0,59,0.00,,---,0.00,VWS V14.01,2013-08-16 08:35:00,
2013-08-16 03:40:00,57.2,42.6,29.41,NW,324,0.0,0.0,58,0.00,,---,0.00,VWS V14.01,2013-08-16 08:40:00,
2013-08-16 03:45:00,56.8,42.2,29.41,NW,324,0.0,0.0,58,0.00,,---,0.00,VWS V14.01,2013-08-16 08:45:00,
2013-08-16 03:50:00,56.7,42.5,29.41,NW,324,0.0,0.0,59,0.00,,---,0.00,VWS V14.01,2013-08-16 08:50:00,
2013-08-16 03:55:00,56.7,42.5,29.41,NW,324,0.0,0.0,59,0.00,,---,0.00,VWS V14.01,2013-08-16 08:55:00,
2013-08-16 04:00:00,56.5,42.3,29.41,NW,324,0.0,0.0,59,0.00,,---,0.00,VWS V14.01,2013-08-16 09:00:00,
2013-08-16 04:05:00,56.1,40.7,29.41,NW,324,0.0,0.0,56,0.00,,---,0.00,VWS V14.01,2013-08-16 09:05:00,
2013-08-16 04:10:00,55.9,40.5,29.41,NW,324,0.0,0.0,56,0.00,,---,0.00,VWS V14.01,2013-08-16 09:10:00,
2013-08-16 04:15:00,55.8,40.3,29.41,NW,324,0.0,0.0,56,0.00,,---,0.00,VWS V14.01,2013-08-16 09:15:00,
2013-08-16 04:20:00,55.6,40.6,29.41,NW,324,0.0,0.0,57,0.00,,---,0.00,VWS V14.01,2013-08-16 09:20:00,
2013-08-16 04:25:00,55.6,39.7,29.41,NW,324,0.0,0.0,55,0.00,,---,0.00,VWS V14.01,2013-08-16 09:25:00,
2013-08-16 04:30:00,55.6,40.2,29.41,NW,324,0.0,0.0,56,0.00,,---,0.00,VWS V14.01,2013-08-16 09:30:00,
2013-08-16 04:35:00,55.6,40.6,29.41,NW,324,0.0,0.0,57,0.00,,---,0.00,VWS V14.01,2013-08-16 09:35:00,
2013-08-16 04:40:00,55.6,40.6,29.41,NW,324,0.0,0.0,57,0.00,,---,0.00,VWS V14.01,2013-08-16 09:40:00,
2013-08-16 04:45:00,55.6,41.0,29.41,NW,324,0.0,0.0,58,0.00,,---,0.00,VWS V14.01,2013-08-16 09:45:00,
2013-08-16 04:50:00,55.6,41.0,29.41,NW,324,0.0,0.0,58,0.00,,---,0.00,VWS V14.01,2013-08-16 09:50:00,
2013-08-16 04:55:00,55.6,41.5,29.41,NW,324,0.0,0.0,59,0.00,,---,0.00,VWS V14.01,2013-08-16 09:55:00,
2013-08-16 05:00:00,55.4,41.8,29.41,NW,324,0.0,0.0,60,0.00,,---,0.00,VWS V14.01,2013-08-16 10:00:00,
2013-08-16 05:05:00,55.4,41.8,29.41,NW,324,0.0,0.0,60,0.00,,---,0.00,VWS V14.01,2013-08-16 10:05:00,
2013-08-16 05:10:00,55.2,41.6,29.41,NW,324,0.0,0.0,60,0.00,,---,0.00,VWS V14.01,2013-08-16 10:10:00,
2013-08-16 05:15:00,55.2,41.6,29.41,NW,324,0.0,0.0,60,0.00,,---,0.00,VWS V14.01,2013-08-16 10:15:00,
2013-08-16 05:20:00,55.0,41.8,29.41,NW,324,0.0,0.0,61,0.00,,---,0.00,VWS V14.01,2013-08-16 10:20:00,
2013-08-16 05:25:00,55.0,41.8,29.41,NW,324,0.0,0.0,61,0.00,,---,0.00,VWS V14.01,2013-08-16 10:25:00,
2013-08-16 05:30:00,55.2,42.4,29.41,NW,324,0.0,0.0,62,0.00,,---,0.00,VWS V14.01,2013-08-16 10:30:00,
2013-08-16 05:35:00,55.4,43.0,29.41,NW,324,0.0,0.0,63,0.00,,---,0.00,VWS V14.01,2013-08-16 10:35:00,
2013-08-16 05:40:00,55.0,43.1,29.41,NW,324,0.0,0.0,64,0.00,,---,0.00,VWS V14.01,2013-08-16 10:40:00,
2013-08-16 05:45:00,54.9,42.9,29.41,NW,324,0.0,0.0,64,0.00,,---,0.00,VWS V14.01,2013-08-16 10:45:00,
2013-08-16 05:50:00,54.7,42.8,29.41,NW,324,0.0,0.0,64,0.00,,---,0.00,VWS V14.01,2013-08-16 10:50:00,
2013-08-16 05:55:00,54.5,42.6,29.41,NW,324,0.0,0.0,64,0.00,,---,0.00,VWS V14.01,2013-08-16 10:55:00,
2013-08-16 06:00:00,54.5,42.6,29.41,NW,324,0.0,0.0,64,0.00,,---,0.00,VWS V14.01,2013-08-16 11:00:00,
2013-08-16 06:05:00,54.3,42.4,29.41,NW,324,0.0,0.0,64,0.00,,---,0.00,VWS V14.01,2013-08-16 11:05:00,
2013-08-16 06:10:00,54.3,42.8,29.41,NW,324,0.0,0.0,65,0.00,,---,0.00,VWS V14.01,2013-08-16 11:10:00,
2013-08-16 06:15:00,54.3,42.8,29.41,NW,324,0.0,0.0,65,0.00,,---,0.00,VWS V14.01,2013-08-16 11:15:00,
2013-08-16 06:20:00,54.3,42.8,29.41,NW,324,0.0,0.0,65,0.00,,---,0.00,VWS V14.01,2013-08-16 11:20:00,
2013-08-16 06:25:00,54.3,42.8,29.41,NW,324,0.0,0.0,65,0.00,,---,0.00,VWS V14.01,2013-08-16 11:25:00,
2013-08-16 06:30:00,54.3,42.8,29.41,NW,324,0.0,0.0,65,0.00,,---,0.00,VWS V14.01,2013-08-16 11:30:00,
2013-08-16 06:35:00,54.5,43.4,29.41,NW,324,0.0,0.0,66,0.00,,---,0.00,VWS V14.01,2013-08-16 11:35:00,
2013-08-16 06:40:00,54.9,43.7,29.41,NW,324,0.0,0.0,66,0.00,,---,0.00,VWS V14.01,2013-08-16 11:40:00,
2013-08-16 06:45:00,54.9,43.7,29.41,NW,324,0.0,0.0,66,0.00,,---,0.00,VWS V14.01,2013-08-16 11:45:00,
2013-08-16 06:50:00,55.2,44.1,29.41,NW,324,0.0,0.0,66,0.00,,---,0.00,VWS V14.01,2013-08-16 11:50:00,
2013-08-16 06:55:00,55.4,43.8,29.41,NW,324,0.0,0.0,65,0.00,,---,0.00,VWS V14.01,2013-08-16 11:55:00,
2013-08-16 07:00:00,55.6,43.6,29.41,NW,324,0.0,0.0,64,0.00,,---,0.00,VWS V14.01,2013-08-16 12:00:00,
2013-08-16 07:05:00,55.8,43.8,29.41,NW,324,0.0,0.0,64,0.00,,---,0.00,VWS V14.01,2013-08-16 12:05:00,
2013-08-16 07:10:00,55.9,44.0,29.41,NW,324,0.0,0.0,64,0.00,,---,0.00,VWS V14.01,2013-08-16 12:10:00,
2013-08-16 07:15:00,56.3,44.7,29.41,NW,324,0.0,0.0,65,0.00,,---,0.00,VWS V14.01,2013-08-16 12:15:00,
2013-08-16 07:20:00,56.8,45.2,29.41,NW,324,0.0,0.0,65,0.00,,---,0.00,VWS V14.01,2013-08-16 12:20:00,
2013-08-16 07:25:00,57.4,44.9,29.41,NW,324,0.0,0.0,63,0.00,,---,0.00,VWS V14.01,2013-08-16 12:25:00,
2013-08-16 07:30:00,57.6,45.5,29.38,NW,324,0.0,0.0,64,0.00,,---,0.00,VWS V14.01,2013-08-16 12:30:00,
2013-08-16 07:35:00,58.1,46.0,29.38,NW,324,0.0,0.0,64,0.00,,---,0.00,VWS V14.01,2013-08-16 12:35:00,
2013-08-16 07:40:00,58.6,46.5,29.38,NW,324,0.0,0.0,64,0.00,,---,0.00,VWS V14.01,2013-08-16 12:40:00,
2013-08-16 07:45:00,59.0,46.8,29.41,NW,324,0.0,0.0,64,0.00,,---,0.00,VWS V14.01,2013-08-16 12:45:00,
2013-08-16 07:50:00,59.7,47.1,29.41,NW,324,0.0,0.0,63,0.00,,---,0.00,VWS V14.01,2013-08-16 12:50:00,
2013-08-16 07:55:00,60.4,47.8,29.41,NW,324,0.0,0.0,63,0.00,,---,0.00,VWS V14.01,2013-08-16 12:55:00,
2013-08-16 08:00:00,61.0,48.3,29.41,NW,324,0.0,0.0,63,0.00,,---,0.00,VWS V14.01,2013-08-16 13:00:00,
2013-08-16 08:05:00,61.7,48.1,29.41,NW,324,0.0,0.0,61,0.00,,---,0.00,VWS V14.01,2013-08-16 13:05:00,
2013-08-16 08:10:00,62.4,47.9,29.41,NW,324,0.0,0.0,59,0.00,,---,0.00,VWS V14.01,2013-08-16 13:10:00,
2013-08-16 08:15:00,63.7,49.5,29.41,NW,324,0.0,0.0,60,0.00,,---,0.00,VWS V14.01,2013-08-16 13:15:00,
2013-08-16 08:20:00,63.5,43.5,29.41,NW,324,0.0,0.0,48,0.00,,---,0.00,VWS V14.01,2013-08-16 13:20:00,
2013-08-16 08:25:00,64.2,42.5,29.41,NW,324,0.0,0.0,45,0.00,,---,0.00,VWS V14.01,2013-08-16 13:25:00,
2013-08-16 08:30:00,65.1,42.7,29.41,NW,324,0.0,0.0,44,0.00,,---,0.00,VWS V14.01,2013-08-16 13:30:00,
2013-08-16 08:35:00,64.6,32.5,29.41,NW,324,0.0,0.0,30,0.00,,---,0.00,VWS V14.01,2013-08-16 13:35:00,
2013-08-16 08:40:00,65.3,33.1,29.41,NW,324,0.0,0.0,30,0.00,,---,0.00,VWS V14.01,2013-08-16 13:40:00,
2013-08-16 08:45:00,65.3,33.1,29.41,NW,324,0.0,0.0,30,0.00,,---,0.00,VWS V14.01,2013-08-16 13:45:00,
2013-08-16 08:50:00,65.3,33.1,29.41,North,357,0.0,0.0,30,0.00,,---,0.00,VWS V14.01,2013-08-16 13:50:00,
2013-08-16 08:55:00,65.3,33.1,29.41,North,357,0.0,0.0,30,0.00,,---,0.00,VWS V14.01,2013-08-16 13:55:00,
2013-08-16 09:00:00,65.3,33.1,29.41,North,357,0.0,0.0,30,0.00,,---,0.00,VWS V14.01,2013-08-16 14:00:00,
2013-08-16 09:05:00,65.3,33.1,29.41,North,357,0.0,0.0,30,0.00,,---,0.00,VWS V14.01,2013-08-16 14:05:00,
2013-08-16 09:10:00,65.3,33.1,29.41,NW,306,0.0,0.0,30,0.00,,---,0.00,VWS V14.01,2013-08-16 14:10:00,
2013-08-16 09:15:00,65.3,33.1,29.41,NNE,18,0.0,0.0,30,0.00,,---,0.00,VWS V14.01,2013-08-16 14:15:00,
2013-08-16 09:20:00,65.3,33.1,29.41,NW,314,0.0,0.0,30,0.00,,---,0.00,VWS V14.01,2013-08-16 14:20:00,
2013-08-16 09:25:00,65.3,33.1,29.41,NW,308,0.0,0.0,30,0.00,,---,0.00,VWS V14.01,2013-08-16 14:25:00,
2013-08-16 09:30:00,65.3,33.1,29.41,WNW,297,0.0,0.0,30,0.00,,---,0.00,VWS V14.01,2013-08-16 14:30:00,
2013-08-16 09:35:00,65.3,33.1,29.41,WNW,286,0.0,0.0,30,0.00,,---,0.00,VWS V14.01,2013-08-16 14:35:00,
2013-08-16 09:40:00,65.3,33.1,29.41,NW,305,0.0,0.0,30,0.00,,---,0.00,VWS V14.01,2013-08-16 14:40:00,
2013-08-16 09:45:00,65.3,33.1,29.41,NNW,345,0.0,0.0,30,0.00,,---,0.00,VWS V14.01,2013-08-16 14:45:00,
2013-08-16 09:50:00,65.3,33.1,29.41,NNW,337,0.0,0.0,30,0.00,,---,0.00,VWS V14.01,2013-08-16 14:50:00,
2013-08-16 09:55:00,65.3,33.1,29.41,North,353,0.0,0.0,30,0.00,,---,0.00,VWS V14.01,2013-08-16 14:55:00,
2013-08-16 10:00:00,65.3,33.1,29.41,NNW,342,0.0,0.0,30,0.00,,---,0.00,VWS V14.01,2013-08-16 15:00:00,
2013-08-16 10:05:00,65.3,33.1,29.41,North,357,0.0,0.0,30,0.00,,---,0.00,VWS V14.01,2013-08-16 15:05:00,
2013-08-16 10:10:00,65.3,33.1,29.41,North,357,0.0,0.0,30,0.00,,---,0.00,VWS V14.01,2013-08-16 15:10:00,
2013-08-16 10:15:00,65.3,33.1,29.41,NNE,24,0.0,0.0,30,0.00,,---,0.00,VWS V14.01,2013-08-16 15:15:00,
2013-08-16 10:19:00,65.3,33.1,29.41,WNW,291,0.0,0.0,30,0.00,,---,0.00,VWS V14.01,2013-08-16 15:19:00,
2013-08-16 10:24:00,65.3,33.1,29.41,North,350,0.0,0.0,30,0.00,,---,0.00,VWS V14.01,2013-08-16 15:24:00,
2013-08-16 10:29:00,65.3,33.1,29.41,WNW,289,0.0,0.0,30,0.00,,---,0.00,VWS V14.01,2013-08-16 15:29:00,
2013-08-16 10:34:00,65.3,33.1,29.41,NW,326,0.0,0.0,30,0.00,,---,0.00,VWS V14.01,2013-08-16 15:34:00,
2013-08-16 10:39:00,65.3,33.1,29.41,NNE,25,0.0,0.0,30,0.00,,---,0.00,VWS V14.01,2013-08-16 15:39:00,
2013-08-16 10:44:00,65.3,33.1,29.41,East,98,0.0,0.0,30,0.00,,---,0.00,VWS V14.01,2013-08-16 15:44:00,
2013-08-16 10:49:00,65.3,33.1,29.41,ENE,63,0.0,0.0,30,0.00,,---,0.00,VWS V14.01,2013-08-16 15:49:00,
2013-08-16 10:54:00,65.3,33.1,29.41,ESE,116,0.0,0.0,30,0.00,,---,0.00,VWS V14.01,2013-08-16 15:54:00,
2013-08-16 10:59:00,65.3,33.1,29.41,East,95,0.0,0.0,30,0.00,,---,0.00,VWS V14.01,2013-08-16 15:59:00,
2013-08-16 11:04:00,65.3,33.1,29.41,East,87,0.0,0.0,30,0.00,,---,0.00,VWS V14.01,2013-08-16 16:04:00,
2013-08-16 11:09:00,65.3,33.1,29.41,North,3,0.0,0.0,30,0.00,,---,0.00,VWS V14.01,2013-08-16 16:09:00,
2013-08-16 11:14:00,65.3,33.1,29.41,NNW,346,8.1,8.1,30,0.00,,---,0.00,VWS V14.01,2013-08-16 16:14:00,
2013-08-16 11:19:00,65.3,33.1,29.41,NNE,24,0.0,5.4,30,0.00,,---,0.00,VWS V14.01,2013-08-16 16:19:00,
2013-08-16 11:24:00,65.3,33.1,29.41,North,353,0.0,0.0,30,0.00,,---,0.00,VWS V14.01,2013-08-16 16:24:00,
2013-08-16 11:29:00,65.3,33.1,29.41,SE,124,0.0,0.0,30,0.00,,---,0.00,VWS V14.01,2013-08-16 16:29:00,
2013-08-16 11:34:00,65.3,33.1,29.41,NNW,343,5.4,7.2,30,0.00,,---,0.00,VWS V14.01,2013-08-16 16:34:00,
2013-08-16 11:39:00,65.3,33.1,29.41,NNW,342,0.0,4.5,30,0.00,,---,0.00,VWS V14.01,2013-08-16 16:39:00,
2013-08-16 11:44:00,65.3,33.1,29.41,North,0,0.0,0.0,30,0.00,,---,0.00,VWS V14.01,2013-08-16 16:44:00,
2013-08-16 11:49:00,65.3,33.1,29.41,West,259,0.0,0.0,30,0.00,,---,0.00,VWS V14.01,2013-08-16 16:49:00,
2013-08-16 11:54:00,65.3,33.1,29.41,NE,38,0.0,0.0,30,0.00,,---,0.00,VWS V14.01,2013-08-16 16:54:00,
2013-08-16 11:59:00,65.3,33.1,29.41,SW,229,0.0,6.3,30,0.00,,---,0.00,VWS V14.01,2013-08-16 16:59:00,
2013-08-16 12:04:00,65.3,33.1,29.41,NE,34,0.0,0.0,30,0.00,,---,0.00,VWS V14.01,2013-08-16 17:04:00,
2013-08-16 12:09:00,65.3,33.1,29.41,ENE,76,0.0,0.0,30,0.00,,---,0.00,VWS V14.01,2013-08-16 17:09:00,
2013-08-16 12:14:00,65.3,33.1,29.41,West,270,0.0,0.0,30,0.00,,---,0.00,VWS V14.01,2013-08-16 17:14:00,
2013-08-16 12:19:00,65.3,33.1,29.41,SSW,198,0.0,0.0,30,0.00,,---,0.00,VWS V14.01,2013-08-16 17:19:00,
2013-08-16 12:24:00,65.3,33.1,29.41,North,353,6.3,7.2,30,0.00,,---,0.00,VWS V14.01,2013-08-16 17:24:00,
2013-08-16 12:29:00,65.3,33.1,29.41,NNW,339,0.0,0.0,30,0.00,,---,0.00,VWS V14.01,2013-08-16 17:29:00,
2013-08-16 12:34:00,65.3,33.1,29.41,NE,47,0.0,0.0,30,0.00,,---,0.00,VWS V14.01,2013-08-16 17:34:00,
2013-08-16 12:39:00,65.3,33.1,29.41,NNE,28,0.0,0.0,30,0.00,,---,0.00,VWS V14.01,2013-08-16 17:39:00,
2013-08-16 12:44:00,65.3,33.1,29.41,WNW,303,0.0,0.0,30,0.00,,---,0.00,VWS V14.01,2013-08-16 17:44:00,
2013-08-16 12:49:00,65.3,33.1,29.41,ENE,67,0.0,0.0,30,0.00,,---,0.00,VWS V14.01,2013-08-16 17:49:00,
2013-08-16 12:54:00,65.3,33.1,29.41,North,4,5.4,10.7,30,0.00,,---,0.00,VWS V14.01,2013-08-16 17:54:00,
2013-08-16 12:59:00,65.3,33.1,29.41,NNE,20,0.0,0.0,30,0.00,,---,0.00,VWS V14.01,2013-08-16 17:59:00,
2013-08-16 13:04:00,65.3,33.1,29.41,SE,136,0.0,0.0,30,0.00,,---,0.00,VWS V14.01,2013-08-16 18:04:00,
2013-08-16 13:09:00,80.4,28.6,29.41,NE,35,0.0,0.0,15,0.00,,---,0.00,VWS V14.01,2013-08-16 18:09:00,
2013-08-16 13:14:00,79.3,27.7,29.41,NE,35,0.0,0.0,15,0.00,,---,0.00,VWS V14.01,2013-08-16 18:14:00,
2013-08-16 13:19:00,77.9,26.6,29.41,NNE,15,0.0,0.0,15,0.00,,---,0.00,VWS V14.01,2013-08-16 18:19:00,
2013-08-16 13:24:00,76.8,25.7,29.41,NNE,15,0.0,0.0,15,0.00,,---,0.00,VWS V14.01,2013-08-16 18:24:00,
2013-08-16 13:29:00,79.7,28.0,29.41,NNE,28,0.0,0.0,15,0.00,,---,0.00,VWS V14.01,2013-08-16 18:29:00,
2013-08-16 13:34:00,83.7,29.5,29.41,SSE,155,0.0,0.0,14,0.00,,---,0.00,VWS V14.01,2013-08-16 18:34:00,
2013-08-16 13:39:00,84.0,29.8,29.41,SE,127,0.0,0.0,14,0.00,,---,0.00,VWS V14.01,2013-08-16 18:39:00,
2013-08-16 13:44:00,84.0,29.8,29.41,East,81,0.0,0.0,14,0.00,,---,0.00,VWS V14.01,2013-08-16 18:44:00,
2013-08-16 13:49:00,84.0,29.8,29.41,NNW,342,0.0,0.0,14,0.00,,---,0.00,VWS V14.01,2013-08-16 18:49:00,
2013-08-16 13:54:00,84.0,29.8,29.41,SSE,157,0.0,0.0,14,0.00,,---,0.00,VWS V14.01,2013-08-16 18:54:00,
2013-08-16 13:59:00,84.0,29.8,29.41,West,272,0.0,0.0,14,0.00,,---,0.00,VWS V14.01,2013-08-16 18:59:00,
2013-08-16 14:04:00,84.0,29.8,29.41,East,85,0.0,0.0,14,0.00,,---,0.00,VWS V14.01,2013-08-16 19:04:00,
2013-08-16 14:09:00,84.0,29.8,29.41,North,3,0.0,0.0,14,0.00,,---,0.00,VWS V14.01,2013-08-16 19:09:00,
2013-08-16 14:14:00,84.0,29.8,29.41,North,2,0.0,0.0,14,0.00,,---,0.00,VWS V14.01,2013-08-16 19:14:00,
2013-08-16 14:19:00,84.0,29.8,29.41,NNE,26,0.0,0.0,14,0.00,,---,0.00,VWS V14.01,2013-08-16 19:19:00,
2013-08-16 14:24:00,84.0,29.8,29.41,NNE,26,0.0,0.0,14,0.00,,---,0.00,VWS V14.01,2013-08-16 19:24:00,
2013-08-16 14:29:00,84.0,29.8,29.41,East,84,0.0,0.0,14,0.00,,---,0.00,VWS V14.01,2013-08-16 19:29:00,
2013-08-16 14:34:00,84.0,29.8,29.41,SW,234,0.0,0.0,14,0.00,,---,0.00,VWS V14.01,2013-08-16 19:34:00,
2013-08-16 14:39:00,80.2,28.4,29.41,NE,37,0.0,0.0,15,0.00,,---,0.00,VWS V14.01,2013-08-16 19:39:00,
2013-08-16 14:44:00,80.4,28.6,29.41,WNW,291,0.0,0.0,15,0.00,,---,0.00,VWS V14.01,2013-08-16 19:44:00,
2013-08-16 14:49:00,80.4,28.6,29.41,NNE,25,0.0,0.0,15,0.00,,---,0.00,VWS V14.01,2013-08-16 19:49:00,
2013-08-16 14:54:00,81.1,27.5,29.41,South,189,0.0,0.0,14,0.00,,---,0.00,VWS V14.01,2013-08-16 19:54:00,
2013-08-16 14:59:00,81.1,27.5,29.41,SSW,202,0.0,0.0,14,0.00,,---,0.00,VWS V14.01,2013-08-16 19:59:00,
2013-08-16 15:04:00,81.1,27.5,29.41,SSE,147,0.0,0.0,14,0.00,,---,0.00,VWS V14.01,2013-08-16 20:04:00,
2013-08-16 15:09:00,80.6,27.0,29.41,SSE,147,0.0,0.0,14,0.00,,---,0.00,VWS V14.01,2013-08-16 20:09:00,
2013-08-16 15:14:00,80.6,27.0,29.41,East,99,0.0,0.0,14,0.00,,---,0.00,VWS V14.01,2013-08-16 20:14:00,
2013-08-16 15:19:00,80.6,27.0,29.41,SE,133,0.0,0.0,14,0.00,,---,0.00,VWS V14.01,2013-08-16 20:19:00,
2013-08-16 15:24:00,80.6,27.0,29.41,SE,126,0.0,0.0,14,0.00,,---,0.00,VWS V14.01,2013-08-16 20:24:00,
2013-08-16 15:29:00,80.6,27.0,29.41,NE,40,0.0,0.0,14,0.00,,---,0.00,VWS V14.01,2013-08-16 20:29:00,
2013-08-16 15:34:00,80.6,27.0,29.41,NE,34,0.0,0.0,14,0.00,,---,0.00,VWS V14.01,2013-08-16 20:34:00,
2013-08-16 15:39:00,79.0,27.4,29.41,NE,53,0.0,0.0,15,0.00,,---,0.00,VWS V14.01,2013-08-16 20:39:00,
2013-08-16 15:44:00,78.8,27.3,29.41,North,357,0.0,0.0,15,0.00,,---,0.00,VWS V14.01,2013-08-16 20:44:00,
2013-08-16 15:49:00,79.2,27.6,29.41,NE,52,0.0,0.0,15,0.00,,---,0.00,VWS V14.01,2013-08-16 20:49:00,
2013-08-16 15:54:00,79.3,27.7,29.41,South,185,0.0,0.0,15,0.00,,---,0.00,VWS V14.01,2013-08-16 20:54:00,
2013-08-16 15:59:00,79.3,27.7,29.41,West,264,0.0,0.0,15,0.00,,---,0.00,VWS V14.01,2013-08-16 20:59:00,
2013-08-16 16:04:00,79.5,27.9,29.41,North,8,7.2,7.2,15,0.00,,---,0.00,VWS V14.01,2013-08-16 21:04:00,
2013-08-16 16:09:00,79.5,27.9,29.41,North,0,0.0,0.0,15,0.00,,---,0.00,VWS V14.01,2013-08-16 21:09:00,
2013-08-16 16:14:00,79.5,27.9,29.41,North,4,0.0,0.0,15,0.00,,---,0.00,VWS V14.01,2013-08-16 21:14:00,
2013-08-16 16:19:00,79.5,27.9,29.41,WNW,300,0.0,0.0,15,0.00,,---,0.00,VWS V14.01,2013-08-16 21:19:00,
2013-08-16 16:24:00,79.5,27.9,29.41,NE,48,0.0,0.0,15,0.00,,---,0.00,VWS V14.01,2013-08-16 21:24:00,
2013-08-16 16:29:00,79.5,27.9,29.41,ESE,117,0.0,0.0,15,0.00,,---,0.00,VWS V14.01,2013-08-16 21:29:00,
2013-08-16 16:34:00,79.5,27.9,29.41,ESE,117,0.0,0.0,15,0.00,,---,0.00,VWS V14.01,2013-08-16 21:34:00,
2013-08-16 16:39:00,79.5,27.9,29.41,ESE,105,0.0,0.0,15,0.00,,---,0.00,VWS V14.01,2013-08-16 21:39:00,
2013-08-16 16:44:00,79.5,27.9,29.41,NE,46,0.0,0.0,15,0.00,,---,0.00,VWS V14.01,2013-08-16 21:44:00,
2013-08-16 16:49:00,79.5,27.9,29.41,SE,128,0.0,0.0,15,0.00,,---,0.00,VWS V14.01,2013-08-16 21:49:00,
2013-08-16 16:54:00,79.5,27.9,29.41,SE,128,0.0,0.0,15,0.00,,---,0.00,VWS V14.01,2013-08-16 21:54:00,
2013-08-16 16:59:00,79.5,27.9,29.41,SE,128,0.0,0.0,15,0.00,,---,0.00,VWS V14.01,2013-08-16 21:59:00,
2013-08-16 17:04:00,79.5,27.9,29.41,SE,128,0.0,0.0,15,0.00,,---,0.00,VWS V14.01,2013-08-16 22:04:00,
2013-08-16 17:09:00,79.5,27.9,29.41,SE,128,0.0,0.0,15,0.00,,---,0.00,VWS V14.01,2013-08-16 22:09:00,
2013-08-16 17:14:00,79.5,27.9,29.41,SE,128,0.0,0.0,15,0.00,,---,0.00,VWS V14.01,2013-08-16 22:14:00,
2013-08-16 17:19:00,79.5,27.9,29.41,SE,128,0.0,0.0,15,0.00,,---,0.00,VWS V14.01,2013-08-16 22:19:00,
2013-08-16 17:24:00,79.5,27.9,29.41,SE,128,0.0,0.0,15,0.00,,---,0.00,VWS V14.01,2013-08-16 22:24:00,
2013-08-16 17:29:00,79.5,27.9,29.41,SE,128,0.0,0.0,15,0.00,,---,0.00,VWS V14.01,2013-08-16 22:29:00,
2013-08-16 17:34:00,79.5,27.9,29.41,SE,128,0.0,0.0,15,0.00,,---,0.00,VWS V14.01,2013-08-16 22:34:00,
2013-08-16 17:39:00,79.5,27.9,29.41,SE,128,0.0,0.0,15,0.00,,---,0.00,VWS V14.01,2013-08-16 22:39:00,
2013-08-16 17:44:00,79.5,27.9,29.41,SE,128,0.0,0.0,15,0.00,,---,0.00,VWS V14.01,2013-08-16 22:44:00,
2013-08-16 17:49:00,79.5,27.9,29.41,SE,128,0.0,0.0,15,0.00,,---,0.00,VWS V14.01,2013-08-16 22:49:00,
2013-08-16 17:54:00,79.5,27.9,29.41,SE,128,0.0,0.0,15,0.00,,---,0.00,VWS V14.01,2013-08-16 22:54:00,
2013-08-16 17:59:00,79.5,27.9,29.41,SE,128,0.0,0.0,15,0.00,,---,0.00,VWS V14.01,2013-08-16 22:59:00,
2013-08-16 18:04:00,79.5,27.9,29.41,SE,128,0.0,0.0,15,0.00,,---,0.00,VWS V14.01,2013-08-16 23:04:00,
2013-08-16 18:09:00,79.5,27.9,29.41,SE,128,0.0,0.0,15,0.00,,---,0.00,VWS V14.01,2013-08-16 23:09:00,
2013-08-16 18:14:00,79.5,27.9,29.41,SE,128,0.0,0.0,15,0.00,,---,0.00,VWS V14.01,2013-08-16 23:14:00,
2013-08-16 18:19:00,79.5,27.9,29.41,SE,128,0.0,0.0,15,0.00,,---,0.00,VWS V14.01,2013-08-16 23:19:00,
2013-08-16 18:24:00,79.5,27.9,29.41,SE,128,0.0,0.0,15,0.00,,---,0.00,VWS V14.01,2013-08-16 23:24:00,
2013-08-16 18:29:00,79.5,27.9,29.41,SE,128,0.0,0.0,15,0.00,,---,0.00,VWS V14.01,2013-08-16 23:29:00,
2013-08-16 18:34:00,79.5,27.9,29.41,SE,128,0.0,0.0,15,0.00,,---,0.00,VWS V14.01,2013-08-16 23:34:00,
2013-08-16 18:39:00,73.2,21.2,29.41,SE,128,0.0,0.0,14,0.00,,---,0.00,VWS V14.01,2013-08-16 23:39:00,
2013-08-16 18:44:00,73.2,21.2,29.41,SE,128,0.0,0.0,14,0.00,,---,0.00,VWS V14.01,2013-08-16 23:44:00,
2013-08-16 18:49:00,73.4,24.5,29.41,SE,128,0.0,0.0,16,0.00,,---,0.00,VWS V14.01,2013-08-16 23:49:00,
2013-08-16 18:54:00,73.2,24.4,29.41,SE,128,0.0,0.0,16,0.00,,---,0.00,VWS V14.01,2013-08-16 23:54:00,
2013-08-16 18:59:00,73.2,24.4,29.41,SE,128,0.0,0.0,16,0.00,,---,0.00,VWS V14.01,2013-08-16 23:59:00,
2013-08-16 19:04:00,73.0,24.2,29.41,SE,128,0.0,0.0,16,0.00,,---,0.00,VWS V14.01,2013-08-17 00:04:00,
2013-08-16 19:09:00,72.9,24.1,29.41,SE,128,0.0,0.0,16,0.00,,---,0.00,VWS V14.01,2013-08-17 00:09:00,
2013-08-16 19:14:00,72.9,24.1,29.41,SE,128,0.0,0.0,16,0.00,,---,0.00,VWS V14.01,2013-08-17 00:14:00,
2013-08-16 19:19:00,72.9,24.1,29.41,SE,128,0.0,0.0,16,0.00,,---,0.00,VWS V14.01,2013-08-17 00:19:00,
2013-08-16 19:24:00,72.9,24.1,29.41,SE,128,0.0,0.0,16,0.00,,---,0.00,VWS V14.01,2013-08-17 00:24:00,
2013-08-16 19:29:00,72.9,24.1,29.41,SE,128,0.0,0.0,16,0.00,,---,0.00,VWS V14.01,2013-08-17 00:29:00,
2013-08-16 19:34:00,72.9,24.1,29.41,SE,128,0.0,0.0,16,0.00,,---,0.00,VWS V14.01,2013-08-17 00:34:00,
2013-08-16 19:39:00,70.2,23.4,29.41,SE,128,0.0,0.0,17,0.00,,---,0.00,VWS V14.01,2013-08-17 00:39:00,
2013-08-16 19:44:00,69.6,22.9,29.41,SE,128,0.0,0.0,17,0.00,,---,0.00,VWS V14.01,2013-08-17 00:44:00,
2013-08-16 19:49:00,69.3,26.5,29.41,SE,128,0.0,0.0,20,0.00,,---,0.00,VWS V14.01,2013-08-17 00:49:00,
2013-08-16 19:54:00,69.3,28.8,29.41,SE,128,0.0,0.0,22,0.00,,---,0.00,VWS V14.01,2013-08-17 00:54:00,
2013-08-16 19:59:00,69.3,29.9,29.41,SE,128,0.0,0.0,23,0.00,,---,0.00,VWS V14.01,2013-08-17 00:59:00,
2013-08-16 20:04:00,69.1,29.8,29.41,SE,128,0.0,0.0,23,0.00,,---,0.00,VWS V14.01,2013-08-17 01:04:00,
2013-08-16 20:09:00,69.1,29.8,29.41,SE,128,0.0,0.0,23,0.00,,---,0.00,VWS V14.01,2013-08-17 01:09:00,
2013-08-16 20:14:00,68.9,29.6,29.41,SE,128,0.0,0.0,23,0.00,,---,0.00,VWS V14.01,2013-08-17 01:14:00,
2013-08-16 20:19:00,68.5,29.3,29.44,SE,128,0.0,0.0,23,0.00,,---,0.00,VWS V14.01,2013-08-17 01:19:00,
2013-08-16 20:24:00,68.2,29.0,29.44,SE,128,0.0,0.0,23,0.00,,---,0.00,VWS V14.01,2013-08-17 01:24:00,
2013-08-16 20:29:00,67.8,29.7,29.44,SE,128,0.0,0.0,24,0.00,,---,0.00,VWS V14.01,2013-08-17 01:29:00,
2013-08-16 20:34:00,67.6,29.6,29.44,SE,128,0.0,0.0,24,0.00,,---,0.00,VWS V14.01,2013-08-17 01:34:00,
2013-08-16 20:39:00,67.5,28.4,29.44,SE,128,0.0,0.0,23,0.00,,---,0.00,VWS V14.01,2013-08-17 01:39:00,
2013-08-16 20:44:00,67.3,28.2,29.44,SE,128,0.0,0.0,23,0.00,,---,0.00,VWS V14.01,2013-08-17 01:44:00,
2013-08-16 20:49:00,66.7,27.8,29.44,SE,128,0.0,0.0,23,0.00,,---,0.00,VWS V14.01,2013-08-17 01:49:00,
2013-08-16 20:54:00,66.4,27.5,29.44,SE,128,0.0,0.0,23,0.00,,---,0.00,VWS V14.01,2013-08-17 01:54:00,
2013-08-16 20:59:00,65.8,28.1,29.44,SE,128,0.0,0.0,24,0.00,,---,0.00,VWS V14.01,2013-08-17 01:59:00,
2013-08-16 21:03:00,65.8,29.1,29.44,SE,128,0.0,0.0,25,0.00,,---,0.00,VWS V14.01,2013-08-17 02:03:00,
2013-08-16 21:08:00,65.7,28.9,29.44,SE,128,0.0,0.0,25,0.00,,---,0.00,VWS V14.01,2013-08-17 02:08:00,
2013-08-16 21:13:00,65.3,29.6,29.44,SE,128,0.0,0.0,26,0.00,,---,0.00,VWS V14.01,2013-08-17 02:13:00,
2013-08-16 21:18:00,64.9,29.3,29.44,SE,128,0.0,0.0,26,0.00,,---,0.00,VWS V14.01,2013-08-17 02:18:00,
2013-08-16 21:23:00,64.6,29.9,29.44,SE,128,0.0,0.0,27,0.00,,---,0.00,VWS V14.01,2013-08-17 02:23:00,
2013-08-16 21:28:00,64.4,29.7,29.44,SE,128,0.0,0.0,27,0.00,,---,0.00,VWS V14.01,2013-08-17 02:28:00,
2013-08-16 21:33:00,64.2,30.5,29.44,SE,128,0.0,0.0,28,0.00,,---,0.00,VWS V14.01,2013-08-17 02:33:00,
2013-08-16 21:38:00,64.2,33.8,29.44,SE,128,0.0,0.0,32,0.00,,---,0.00,VWS V14.01,2013-08-17 02:38:00,
2013-08-16 21:43:00,63.9,32.7,29.44,SE,128,0.0,0.0,31,0.00,,---,0.00,VWS V14.01,2013-08-17 02:43:00,
2013-08-16 21:48:00,63.9,35.0,29.44,SE,128,0.0,0.0,34,0.00,,---,0.00,VWS V14.01,2013-08-17 02:48:00,
2013-08-16 21:53:00,63.5,34.7,29.44,SE,128,0.0,0.0,34,0.00,,---,0.00,VWS V14.01,2013-08-17 02:53:00,
2013-08-16 21:58:00,63.1,34.3,29.44,SE,128,0.0,0.0,34,0.00,,---,0.00,VWS V14.01,2013-08-17 02:58:00,
2013-08-16 22:03:00,62.6,33.9,29.44,SE,128,0.0,0.0,34,0.00,,---,0.00,VWS V14.01,2013-08-17 03:03:00,
2013-08-16 22:08:00,62.2,33.5,29.44,SE,128,0.0,0.0,34,0.00,,---,0.00,VWS V14.01,2013-08-17 03:08:00,
2013-08-16 22:13:00,62.2,34.3,29.44,SE,128,0.0,0.0,35,0.00,,---,0.00,VWS V14.01,2013-08-17 03:13:00,
2013-08-16 22:18:00,61.9,34.0,29.44,SE,128,0.0,0.0,35,0.00,,---,0.00,VWS V14.01,2013-08-17 03:18:00,
2013-08-16 22:23:00,61.9,34.0,29.44,SE,128,0.0,0.0,35,0.00,,---,0.00,VWS V14.01,2013-08-17 03:23:00,
2013-08-16 22:28:00,61.7,33.8,29.44,SE,128,0.0,0.0,35,0.00,,---,0.00,VWS V14.01,2013-08-17 03:28:00,
2013-08-16 22:33:00,61.7,33.8,29.44,SE,128,0.0,0.0,35,0.00,,---,0.00,VWS V14.01,2013-08-17 03:33:00,
2013-08-16 22:38:00,61.7,33.8,29.44,SE,128,0.0,0.0,35,0.00,,---,0.00,VWS V14.01,2013-08-17 03:38:00,
2013-08-16 22:43:00,61.7,34.5,29.44,SE,128,0.0,0.0,36,0.00,,---,0.00,VWS V14.01,2013-08-17 03:43:00,
2013-08-16 22:48:00,61.7,33.8,29.44,SE,128,0.0,0.0,35,0.00,,---,0.00,VWS V14.01,2013-08-17 03:48:00,
2013-08-16 22:53:00,61.7,34.5,29.44,SE,128,0.0,0.0,36,0.00,,---,0.00,VWS V14.01,2013-08-17 03:53:00,
2013-08-16 22:58:00,61.5,34.3,29.44,SE,128,0.0,0.0,36,0.00,,---,0.00,VWS V14.01,2013-08-17 03:58:00,
2013-08-16 23:01:00,61.5,34.3,29.44,SE,128,0.0,0.0,36,0.00,,---,0.00,VWS V14.01,2013-08-17 04:01:00,
2013-08-16 23:06:00,61.2,34.0,29.44,SE,128,0.0,0.0,36,0.00,,---,0.00,VWS V14.01,2013-08-17 04:06:00,
2013-08-16 23:11:00,61.0,33.9,29.44,SE,128,0.0,0.0,36,0.00,,---,0.00,VWS V14.01,2013-08-17 04:11:00,
2013-08-16 23:16:00,61.0,33.9,29.44,SE,128,0.0,0.0,36,0.00,,---,0.00,VWS V14.01,2013-08-17 04:16:00,
2013-08-16 23:21:00,60.8,33.7,29.44,SE,128,0.0,0.0,36,0.00,,---,0.00,VWS V14.01,2013-08-17 04:21:00,
2013-08-16 23:26:00,60.8,33.7,29.44,SE,128,0.0,0.0,36,0.00,,---,0.00,VWS V14.01,2013-08-17 04:26:00,
2013-08-16 23:31:00,60.6,34.2,29.44,SE,128,0.0,0.0,37,0.00,,---,0.00,VWS V14.01,2013-08-17 04:31:00,
2013-08-16 23:36:00,60.4,33.4,29.44,SE,128,0.0,0.0,36,0.00,,---,0.00,VWS V14.01,2013-08-17 04:36:00,
2013-08-16 23:41:00,60.3,33.2,29.44,SE,128,0.0,0.0,36,0.00,,---,0.00,VWS V14.01,2013-08-17 04:41:00,
2013-08-16 23:46:00,60.1,33.1,29.44,SE,128,0.0,0.0,36,0.00,,---,0.00,VWS V14.01,2013-08-17 04:46:00,
2013-08-16 23:51:00,59.9,32.9,29.44,SE,128,0.0,0.0,36,0.00,,---,0.00,VWS V14.01,2013-08-17 04:51:00,
2013-08-16 23:56:00,59.7,33.4,29.44,SE,128,0.0,0.0,37,0.00,,---,0.00,VWS V14.01,2013-08-17 04:56:00,